Terminal Aerodrome Forecast
Issued by NWS Blacksburg, VA

Home | Current Version | Previous Version | Text Only | Print | Product List | Glossary On
Versions: 1 2 3 4 5 6 7 8 9 10 11 12 13 14 15 16 17 18
000
FTUS41 KRNK 191739
TAFBLF
TAF
KBLF 191739Z 1918/2018 29009KT P6SM SCT003 BKN008
      TEMPO 1918/1920 BKN003
     FM192100 29008KT P6SM BKN040
     FM200000 30006KT P6SM SCT030
     FM200300 30004KT P6SM SCT008
     FM200900 VRB03KT P6SM SCT020
     FM201200 00000KT P6SM SCT250=

USA.gov is the U.S. government's official web portal to all federal, state and local government web resources and services.